sensor_id;sensor_type;location;lat;lon;timestamp;temperature;humidity
10702;DHT22;5402;50.004;8.246;2023-12-20T00:00:36;5.30;99.90
10702;DHT22;5402;50.004;8.246;2023-12-20T00:03:04;5.30;99.90
10702;DHT22;5402;50.004;8.246;2023-12-20T00:05:30;5.30;99.90
10702;DHT22;5402;50.004;8.246;2023-12-20T00:07:57;5.30;99.90
10702;DHT22;5402;50.004;8.246;2023-12-20T00:10:24;5.30;99.90
10702;DHT22;5402;50.004;8.246;2023-12-20T00:12:52;5.30;99.90
10702;DHT22;5402;50.004;8.246;2023-12-20T00:15:19;5.30;99.90
10702;DHT22;5402;50.004;8.246;2023-12-20T00:17:45;5.30;99.90
10702;DHT22;5402;50.004;8.246;2023-12-20T00:20:12;5.30;99.90
10702;DHT22;5402;50.004;8.246;2023-12-20T00:22:39;5.30;99.90
10702;DHT22;5402;50.004;8.246;2023-12-20T00:25:06;5.30;99.90
10702;DHT22;5402;50.004;8.246;2023-12-20T00:27:33;5.30;99.90
10702;DHT22;5402;50.004;8.246;2023-12-20T00:30:01;5.30;99.90
10702;DHT22;5402;50.004;8.246;2023-12-20T00:32:28;5.30;99.90
10702;DHT22;5402;50.004;8.246;2023-12-20T00:34:55;5.40;99.90
10702;DHT22;5402;50.004;8.246;2023-12-20T00:37:22;5.30;99.90
10702;DHT22;5402;50.004;8.246;2023-12-20T00:39:49;5.30;99.90
10702;DHT22;5402;50.004;8.246;2023-12-20T00:42:16;5.30;99.90
10702;DHT22;5402;50.004;8.246;2023-12-20T00:44:42;5.30;99.90
10702;DHT22;5402;50.004;8.246;2023-12-20T00:47:10;5.30;99.90
10702;DHT22;5402;50.004;8.246;2023-12-20T00:49:38;5.30;99.90
10702;DHT22;5402;50.004;8.246;2023-12-20T00:52:05;5.30;99.90
10702;DHT22;5402;50.004;8.246;2023-12-20T00:54:32;5.30;99.90
10702;DHT22;5402;50.004;8.246;2023-12-20T00:56:59;5.30;99.90
10702;DHT22;5402;50.004;8.246;2023-12-20T00:59:26;5.30;99.90
10702;DHT22;5402;50.004;8.246;2023-12-20T01:01:52;5.30;99.90
10702;DHT22;5402;50.004;8.246;2023-12-20T01:04:20;5.30;99.90
10702;DHT22;5402;50.004;8.246;2023-12-20T01:06:47;5.30;99.90
10702;DHT22;5402;50.004;8.246;2023-12-20T01:09:14;5.30;99.90
10702;DHT22;5402;50.004;8.246;2023-12-20T01:11:40;5.30;99.90
10702;DHT22;5402;50.004;8.246;2023-12-20T01:14:07;5.30;99.90
10702;DHT22;5402;50.004;8.246;2023-12-20T01:16:34;5.30;99.90
10702;DHT22;5402;50.004;8.246;2023-12-20T01:19:00;5.40;99.90
10702;DHT22;5402;50.004;8.246;2023-12-20T01:21:28;5.40;99.90
10702;DHT22;5402;50.004;8.246;2023-12-20T01:23:55;5.40;99.90
10702;DHT22;5402;50.004;8.246;2023-12-20T01:26:22;5.40;99.90
10702;DHT22;5402;50.004;8.246;2023-12-20T01:28:49;5.40;99.90
10702;DHT22;5402;50.004;8.246;2023-12-20T01:31:16;5.30;99.90
10702;DHT22;5402;50.004;8.246;2023-12-20T01:33:42;5.40;99.90
10702;DHT22;5402;50.004;8.246;2023-12-20T01:36:09;5.40;99.90
10702;DHT22;5402;50.004;8.246;2023-12-20T01:38:38;5.40;99.90
10702;DHT22;5402;50.004;8.246;2023-12-20T01:41:04;5.40;99.90
10702;DHT22;5402;50.004;8.246;2023-12-20T01:43:31;5.40;99.90
10702;DHT22;5402;50.004;8.246;2023-12-20T01:45:58;5.40;99.90
10702;DHT22;5402;50.004;8.246;2023-12-20T01:48:25;5.40;99.90
10702;DHT22;5402;50.004;8.246;2023-12-20T01:50:54;5.40;99.90
10702;DHT22;5402;50.004;8.246;2023-12-20T01:53:22;5.40;99.90
10702;DHT22;5402;50.004;8.246;2023-12-20T01:55:52;5.40;99.90
10702;DHT22;5402;50.004;8.246;2023-12-20T01:58:21;5.50;99.90
10702;DHT22;5402;50.004;8.246;2023-12-20T02:00:48;5.40;99.90
10702;DHT22;5402;50.004;8.246;2023-12-20T02:03:16;5.40;99.90
10702;DHT22;5402;50.004;8.246;2023-12-20T02:05:44;5.40;99.90
10702;DHT22;5402;50.004;8.246;2023-12-20T02:08:12;5.40;99.90
10702;DHT22;5402;50.004;8.246;2023-12-20T02:10:38;5.40;99.90
10702;DHT22;5402;50.004;8.246;2023-12-20T02:13:07;5.40;99.90
10702;DHT22;5402;50.004;8.246;2023-12-20T02:15:33;5.40;99.90
10702;DHT22;5402;50.004;8.246;2023-12-20T02:18:02;5.40;99.90
10702;DHT22;5402;50.004;8.246;2023-12-20T02:20:29;5.40;99.90
10702;DHT22;5402;50.004;8.246;2023-12-20T02:22:57;5.40;99.90
10702;DHT22;5402;50.004;8.246;2023-12-20T02:25:23;5.40;99.90
10702;DHT22;5402;50.004;8.246;2023-12-20T02:27:50;5.40;99.90
10702;DHT22;5402;50.004;8.246;2023-12-20T02:30:17;5.40;99.90
10702;DHT22;5402;50.004;8.246;2023-12-20T02:32:44;5.40;99.90
10702;DHT22;5402;50.004;8.246;2023-12-20T02:35:11;5.40;99.90
10702;DHT22;5402;50.004;8.246;2023-12-20T02:37:37;5.50;99.90
10702;DHT22;5402;50.004;8.246;2023-12-20T02:40:07;5.40;99.90
10702;DHT22;5402;50.004;8.246;2023-12-20T02:42:33;5.50;99.90
10702;DHT22;5402;50.004;8.246;2023-12-20T02:45:00;5.50;99.90
10702;DHT22;5402;50.004;8.246;2023-12-20T02:47:27;5.50;99.90
10702;DHT22;5402;50.004;8.246;2023-12-20T02:49:55;5.50;99.90
10702;DHT22;5402;50.004;8.246;2023-12-20T02:52:22;5.50;99.90
10702;DHT22;5402;50.004;8.246;2023-12-20T02:54:49;5.50;99.90
10702;DHT22;5402;50.004;8.246;2023-12-20T02:57:17;5.60;99.90
10702;DHT22;5402;50.004;8.246;2023-12-20T02:59:44;5.60;99.90
10702;DHT22;5402;50.004;8.246;2023-12-20T03:02:10;5.60;99.90
10702;DHT22;5402;50.004;8.246;2023-12-20T03:04:37;5.60;99.90
10702;DHT22;5402;50.004;8.246;2023-12-20T03:07:04;5.60;99.90
10702;DHT22;5402;50.004;8.246;2023-12-20T03:09:30;5.60;99.90
10702;DHT22;5402;50.004;8.246;2023-12-20T03:11:57;5.60;99.90
10702;DHT22;5402;50.004;8.246;2023-12-20T03:14:25;5.70;99.90
10702;DHT22;5402;50.004;8.246;2023-12-20T03:16:52;5.70;99.90
10702;DHT22;5402;50.004;8.246;2023-12-20T03:19:19;5.70;99.90
10702;DHT22;5402;50.004;8.246;2023-12-20T03:21:45;5.70;99.90
10702;DHT22;5402;50.004;8.246;2023-12-20T03:24:12;5.70;99.90
10702;DHT22;5402;50.004;8.246;2023-12-20T03:26:39;5.70;99.90
10702;DHT22;5402;50.004;8.246;2023-12-20T03:29:05;5.70;99.90
10702;DHT22;5402;50.004;8.246;2023-12-20T03:31:34;5.70;99.90
10702;DHT22;5402;50.004;8.246;2023-12-20T03:34:00;5.70;99.90
10702;DHT22;5402;50.004;8.246;2023-12-20T03:36:27;5.70;99.90
10702;DHT22;5402;50.004;8.246;2023-12-20T03:38:53;5.70;99.90
10702;DHT22;5402;50.004;8.246;2023-12-20T03:41:20;5.70;99.90
10702;DHT22;5402;50.004;8.246;2023-12-20T03:43:47;5.70;99.90
10702;DHT22;5402;50.004;8.246;2023-12-20T03:46:13;5.80;99.90
10702;DHT22;5402;50.004;8.246;2023-12-20T03:48:41;5.80;99.90
10702;DHT22;5402;50.004;8.246;2023-12-20T03:51:08;5.80;99.90
10702;DHT22;5402;50.004;8.246;2023-12-20T03:53:35;5.80;99.90
10702;DHT22;5402;50.004;8.246;2023-12-20T03:56:02;5.80;99.90
10702;DHT22;5402;50.004;8.246;2023-12-20T03:58:29;5.80;99.90
10702;DHT22;5402;50.004;8.246;2023-12-20T04:00:55;5.90;99.90
10702;DHT22;5402;50.004;8.246;2023-12-20T04:03:22;5.90;99.90
10702;DHT22;5402;50.004;8.246;2023-12-20T04:05:50;5.90;99.90
10702;DHT22;5402;50.004;8.246;2023-12-20T04:08:17;5.90;99.90
10702;DHT22;5402;50.004;8.246;2023-12-20T04:10:43;5.90;99.90
10702;DHT22;5402;50.004;8.246;2023-12-20T04:13:10;5.90;99.90
10702;DHT22;5402;50.004;8.246;2023-12-20T04:15:37;5.90;99.90
10702;DHT22;5402;50.004;8.246;2023-12-20T04:18:04;5.90;99.90
10702;DHT22;5402;50.004;8.246;2023-12-20T04:20:31;5.90;99.90
10702;DHT22;5402;50.004;8.246;2023-12-20T04:22:58;5.90;99.90
10702;DHT22;5402;50.004;8.246;2023-12-20T04:25:25;5.80;99.90
10702;DHT22;5402;50.004;8.246;2023-12-20T04:27:52;5.80;99.90
10702;DHT22;5402;50.004;8.246;2023-12-20T04:30:18;5.80;99.90
10702;DHT22;5402;50.004;8.246;2023-12-20T04:32:45;5.70;99.90
10702;DHT22;5402;50.004;8.246;2023-12-20T04:35:12;5.70;99.90
10702;DHT22;5402;50.004;8.246;2023-12-20T04:37:38;5.70;99.90
10702;DHT22;5402;50.004;8.246;2023-12-20T04:40:07;5.70;99.90
10702;DHT22;5402;50.004;8.246;2023-12-20T04:42:34;5.70;99.90
10702;DHT22;5402;50.004;8.246;2023-12-20T04:45:01;5.80;99.90
10702;DHT22;5402;50.004;8.246;2023-12-20T04:47:28;5.80;99.90
10702;DHT22;5402;50.004;8.246;2023-12-20T04:49:55;5.80;99.90
10702;DHT22;5402;50.004;8.246;2023-12-20T04:52:21;5.80;99.90
10702;DHT22;5402;50.004;8.246;2023-12-20T04:54:48;5.70;99.90
10702;DHT22;5402;50.004;8.246;2023-12-20T04:57:16;5.70;99.90
10702;DHT22;5402;50.004;8.246;2023-12-20T04:59:43;5.70;99.90
10702;DHT22;5402;50.004;8.246;2023-12-20T05:02:10;5.60;99.90
10702;DHT22;5402;50.004;8.246;2023-12-20T05:04:37;5.60;99.90
10702;DHT22;5402;50.004;8.246;2023-12-20T05:07:04;5.60;99.90
10702;DHT22;5402;50.004;8.246;2023-12-20T05:09:31;5.50;99.90
10702;DHT22;5402;50.004;8.246;2023-12-20T05:11:57;5.40;99.90
10702;DHT22;5402;50.004;8.246;2023-12-20T05:14:25;5.30;99.90
10702;DHT22;5402;50.004;8.246;2023-12-20T05:16:52;5.30;99.90
10702;DHT22;5402;50.004;8.246;2023-12-20T05:19:20;5.20;99.90
10702;DHT22;5402;50.004;8.246;2023-12-20T05:21:47;5.10;99.90
10702;DHT22;5402;50.004;8.246;2023-12-20T05:24:14;5.20;99.90
10702;DHT22;5402;50.004;8.246;2023-12-20T05:26:40;5.00;99.90
10702;DHT22;5402;50.004;8.246;2023-12-20T05:29:07;5.00;99.90
10702;DHT22;5402;50.004;8.246;2023-12-20T05:31:35;5.00;99.90
10702;DHT22;5402;50.004;8.246;2023-12-20T05:34:02;5.00;99.90
10702;DHT22;5402;50.004;8.246;2023-12-20T05:36:28;4.90;99.90
10702;DHT22;5402;50.004;8.246;2023-12-20T05:38:55;4.90;99.90
10702;DHT22;5402;50.004;8.246;2023-12-20T05:41:22;4.90;99.90
10702;DHT22;5402;50.004;8.246;2023-12-20T05:43:48;4.90;99.90
10702;DHT22;5402;50.004;8.246;2023-12-20T05:46:15;4.90;99.90
10702;DHT22;5402;50.004;8.246;2023-12-20T05:48:43;4.80;99.90
10702;DHT22;5402;50.004;8.246;2023-12-20T05:51:11;4.80;99.90
10702;DHT22;5402;50.004;8.246;2023-12-20T05:53:38;4.70;99.90
10702;DHT22;5402;50.004;8.246;2023-12-20T05:56:05;4.70;99.90
10702;DHT22;5402;50.004;8.246;2023-12-20T05:58:32;4.70;99.90
10702;DHT22;5402;50.004;8.246;2023-12-20T06:00:58;4.70;99.90
10702;DHT22;5402;50.004;8.246;2023-12-20T06:03:25;4.70;99.90
10702;DHT22;5402;50.004;8.246;2023-12-20T06:05:53;4.60;99.90
10702;DHT22;5402;50.004;8.246;2023-12-20T06:08:20;4.50;99.90
10702;DHT22;5402;50.004;8.246;2023-12-20T06:10:47;4.50;99.90
10702;DHT22;5402;50.004;8.246;2023-12-20T06:13:13;4.50;99.90
10702;DHT22;5402;50.004;8.246;2023-12-20T06:15:40;4.40;99.90
10702;DHT22;5402;50.004;8.246;2023-12-20T06:18:07;4.40;99.90
10702;DHT22;5402;50.004;8.246;2023-12-20T06:20:33;4.30;99.90
10702;DHT22;5402;50.004;8.246;2023-12-20T06:23:01;4.30;99.90
10702;DHT22;5402;50.004;8.246;2023-12-20T06:25:28;4.20;99.90
10702;DHT22;5402;50.004;8.246;2023-12-20T06:27:55;4.20;99.90
10702;DHT22;5402;50.004;8.246;2023-12-20T06:30:21;4.20;99.90
10702;DHT22;5402;50.004;8.246;2023-12-20T06:32:50;4.20;99.90
10702;DHT22;5402;50.004;8.246;2023-12-20T06:35:17;4.10;99.90
10702;DHT22;5402;50.004;8.246;2023-12-20T06:37:43;4.10;99.90
10702;DHT22;5402;50.004;8.246;2023-12-20T06:40:12;4.10;99.90
10702;DHT22;5402;50.004;8.246;2023-12-20T06:42:38;4.20;99.90
10702;DHT22;5402;50.004;8.246;2023-12-20T06:45:06;4.20;99.90
10702;DHT22;5402;50.004;8.246;2023-12-20T06:47:32;4.10;99.90
10702;DHT22;5402;50.004;8.246;2023-12-20T06:49:59;4.20;99.90
10702;DHT22;5402;50.004;8.246;2023-12-20T06:52:26;4.20;99.90
10702;DHT22;5402;50.004;8.246;2023-12-20T06:54:52;4.20;99.90
10702;DHT22;5402;50.004;8.246;2023-12-20T06:57:20;4.30;99.90
10702;DHT22;5402;50.004;8.246;2023-12-20T06:59:47;4.30;99.90
10702;DHT22;5402;50.004;8.246;2023-12-20T07:02:14;4.30;99.90
10702;DHT22;5402;50.004;8.246;2023-12-20T07:04:41;4.20;99.90
10702;DHT22;5402;50.004;8.246;2023-12-20T07:07:08;4.20;99.90
10702;DHT22;5402;50.004;8.246;2023-12-20T07:09:34;4.40;99.90
10702;DHT22;5402;50.004;8.246;2023-12-20T07:12:01;4.40;99.90
10702;DHT22;5402;50.004;8.246;2023-12-20T07:14:30;4.50;99.90
10702;DHT22;5402;50.004;8.246;2023-12-20T07:16:56;4.50;99.90
10702;DHT22;5402;50.004;8.246;2023-12-20T07:19:23;4.50;99.90
10702;DHT22;5402;50.004;8.246;2023-12-20T07:21:50;4.60;99.90
10702;DHT22;5402;50.004;8.246;2023-12-20T07:24:16;4.50;99.90
10702;DHT22;5402;50.004;8.246;2023-12-20T07:26:43;4.50;99.90
10702;DHT22;5402;50.004;8.246;2023-12-20T07:29:10;4.40;99.90
10702;DHT22;5402;50.004;8.246;2023-12-20T07:31:38;4.50;99.90
10702;DHT22;5402;50.004;8.246;2023-12-20T07:34:04;4.50;99.90
10702;DHT22;5402;50.004;8.246;2023-12-20T07:36:31;4.40;99.90
10702;DHT22;5402;50.004;8.246;2023-12-20T07:38:58;4.40;99.90
10702;DHT22;5402;50.004;8.246;2023-12-20T07:41:25;4.40;99.90
10702;DHT22;5402;50.004;8.246;2023-12-20T07:43:51;4.40;99.90
10702;DHT22;5402;50.004;8.246;2023-12-20T07:46:20;4.30;99.90
10702;DHT22;5402;50.004;8.246;2023-12-20T07:48:50;4.40;99.90
10702;DHT22;5402;50.004;8.246;2023-12-20T07:51:17;4.30;99.90
10702;DHT22;5402;50.004;8.246;2023-12-20T07:53:43;4.30;99.90
10702;DHT22;5402;50.004;8.246;2023-12-20T07:56:14;4.40;99.90
10702;DHT22;5402;50.004;8.246;2023-12-20T07:58:41;4.40;99.90
10702;DHT22;5402;50.004;8.246;2023-12-20T08:01:08;4.50;99.90
10702;DHT22;5402;50.004;8.246;2023-12-20T08:03:35;4.50;99.90
10702;DHT22;5402;50.004;8.246;2023-12-20T08:06:03;4.50;99.90
10702;DHT22;5402;50.004;8.246;2023-12-20T08:08:30;4.60;99.90
10702;DHT22;5402;50.004;8.246;2023-12-20T08:10:57;4.70;99.90
10702;DHT22;5402;50.004;8.246;2023-12-20T08:13:25;4.80;99.90
10702;DHT22;5402;50.004;8.246;2023-12-20T08:15:52;4.80;99.90
10702;DHT22;5402;50.004;8.246;2023-12-20T08:18:19;5.00;99.90
10702;DHT22;5402;50.004;8.246;2023-12-20T08:20:46;5.00;99.90
10702;DHT22;5402;50.004;8.246;2023-12-20T08:23:15;5.10;99.90
10702;DHT22;5402;50.004;8.246;2023-12-20T08:25:42;5.10;99.90
10702;DHT22;5402;50.004;8.246;2023-12-20T08:28:08;5.20;99.90
10702;DHT22;5402;50.004;8.246;2023-12-20T08:30:35;5.40;99.90
10702;DHT22;5402;50.004;8.246;2023-12-20T08:33:02;5.40;99.90
10702;DHT22;5402;50.004;8.246;2023-12-20T08:35:28;5.40;99.90
10702;DHT22;5402;50.004;8.246;2023-12-20T08:37:55;5.50;99.90
10702;DHT22;5402;50.004;8.246;2023-12-20T08:40:23;5.50;99.90
10702;DHT22;5402;50.004;8.246;2023-12-20T08:42:50;5.50;99.90
10702;DHT22;5402;50.004;8.246;2023-12-20T08:45:17;5.50;99.90
10702;DHT22;5402;50.004;8.246;2023-12-20T08:47:43;5.50;99.90
10702;DHT22;5402;50.004;8.246;2023-12-20T08:50:11;5.50;99.90
10702;DHT22;5402;50.004;8.246;2023-12-20T08:52:37;5.50;99.90
10702;DHT22;5402;50.004;8.246;2023-12-20T08:55:05;5.50;99.90
10702;DHT22;5402;50.004;8.246;2023-12-20T08:57:33;5.50;99.90
10702;DHT22;5402;50.004;8.246;2023-12-20T09:00:00;5.60;99.90
10702;DHT22;5402;50.004;8.246;2023-12-20T09:02:27;5.60;99.90
10702;DHT22;5402;50.004;8.246;2023-12-20T09:04:54;5.70;99.90
10702;DHT22;5402;50.004;8.246;2023-12-20T09:07:22;5.70;99.90
10702;DHT22;5402;50.004;8.246;2023-12-20T09:09:49;5.70;99.90
10702;DHT22;5402;50.004;8.246;2023-12-20T09:12:17;5.70;99.90
10702;DHT22;5402;50.004;8.246;2023-12-20T09:14:47;5.70;99.90
10702;DHT22;5402;50.004;8.246;2023-12-20T09:17:14;5.80;99.90
10702;DHT22;5402;50.004;8.246;2023-12-20T09:19:41;5.80;99.90
10702;DHT22;5402;50.004;8.246;2023-12-20T09:22:09;5.90;99.90
10702;DHT22;5402;50.004;8.246;2023-12-20T09:24:36;6.00;99.90
10702;DHT22;5402;50.004;8.246;2023-12-20T09:27:04;6.00;99.90
10702;DHT22;5402;50.004;8.246;2023-12-20T09:29:31;6.00;99.90
10702;DHT22;5402;50.004;8.246;2023-12-20T09:31:59;6.10;99.90
10702;DHT22;5402;50.004;8.246;2023-12-20T09:34:26;6.10;99.90
10702;DHT22;5402;50.004;8.246;2023-12-20T09:36:53;6.10;99.90
10702;DHT22;5402;50.004;8.246;2023-12-20T09:39:20;6.20;99.90
10702;DHT22;5402;50.004;8.246;2023-12-20T09:41:56;6.20;99.90
10702;DHT22;5402;50.004;8.246;2023-12-20T09:44:26;6.20;99.90
10702;DHT22;5402;50.004;8.246;2023-12-20T09:46:53;6.20;99.90
10702;DHT22;5402;50.004;8.246;2023-12-20T09:49:22;6.20;99.90
10702;DHT22;5402;50.004;8.246;2023-12-20T09:51:50;6.10;99.90
10702;DHT22;5402;50.004;8.246;2023-12-20T09:54:18;6.20;99.90
10702;DHT22;5402;50.004;8.246;2023-12-20T09:56:45;6.20;99.90
10702;DHT22;5402;50.004;8.246;2023-12-20T09:59:12;6.20;99.90
10702;DHT22;5402;50.004;8.246;2023-12-20T10:01:39;6.20;99.90
10702;DHT22;5402;50.004;8.246;2023-12-20T10:04:08;6.20;99.90
10702;DHT22;5402;50.004;8.246;2023-12-20T10:06:39;6.30;99.90
10702;DHT22;5402;50.004;8.246;2023-12-20T10:09:06;6.30;99.90
10702;DHT22;5402;50.004;8.246;2023-12-20T10:11:33;6.30;99.90
10702;DHT22;5402;50.004;8.246;2023-12-20T10:14:03;6.40;99.90
10702;DHT22;5402;50.004;8.246;2023-12-20T10:16:30;6.40;99.90
10702;DHT22;5402;50.004;8.246;2023-12-20T10:18:58;6.50;99.90
10702;DHT22;5402;50.004;8.246;2023-12-20T10:21:25;6.60;99.90
10702;DHT22;5402;50.004;8.246;2023-12-20T10:23:55;6.60;99.90
10702;DHT22;5402;50.004;8.246;2023-12-20T10:26:22;6.60;99.90
10702;DHT22;5402;50.004;8.246;2023-12-20T10:28:50;6.70;99.90
10702;DHT22;5402;50.004;8.246;2023-12-20T10:31:28;6.80;99.90
10702;DHT22;5402;50.004;8.246;2023-12-20T10:33:56;6.80;99.90
10702;DHT22;5402;50.004;8.246;2023-12-20T10:36:25;6.90;99.90
10702;DHT22;5402;50.004;8.246;2023-12-20T10:38:57;6.90;99.90
10702;DHT22;5402;50.004;8.246;2023-12-20T10:41:27;6.90;99.90
10702;DHT22;5402;50.004;8.246;2023-12-20T10:43:56;7.00;99.90
10702;DHT22;5402;50.004;8.246;2023-12-20T10:46:26;7.00;99.90
10702;DHT22;5402;50.004;8.246;2023-12-20T10:48:54;7.10;99.90
10702;DHT22;5402;50.004;8.246;2023-12-20T10:51:21;7.10;99.90
10702;DHT22;5402;50.004;8.246;2023-12-20T10:53:50;7.30;99.90
10702;DHT22;5402;50.004;8.246;2023-12-20T10:56:18;7.40;99.90
10702;DHT22;5402;50.004;8.246;2023-12-20T10:58:47;7.60;99.90
10702;DHT22;5402;50.004;8.246;2023-12-20T11:01:14;7.80;99.90
10702;DHT22;5402;50.004;8.246;2023-12-20T11:03:49;8.10;99.90
10702;DHT22;5402;50.004;8.246;2023-12-20T11:06:29;8.20;99.90
10702;DHT22;5402;50.004;8.246;2023-12-20T11:09:06;8.30;99.90
10702;DHT22;5402;50.004;8.246;2023-12-20T11:11:51;8.10;99.90
10702;DHT22;5402;50.004;8.246;2023-12-20T11:14:25;8.10;99.90
10702;DHT22;5402;50.004;8.246;2023-12-20T11:17:06;8.00;99.90
10702;DHT22;5402;50.004;8.246;2023-12-20T11:19:32;8.00;99.90
10702;DHT22;5402;50.004;8.246;2023-12-20T11:21:59;8.00;99.90
10702;DHT22;5402;50.004;8.246;2023-12-20T11:24:26;8.00;99.90
10702;DHT22;5402;50.004;8.246;2023-12-20T11:26:56;8.00;99.90
10702;DHT22;5402;50.004;8.246;2023-12-20T11:29:30;7.90;99.90
10702;DHT22;5402;50.004;8.246;2023-12-20T11:31:57;7.90;99.90
10702;DHT22;5402;50.004;8.246;2023-12-20T11:34:27;7.90;99.90
10702;DHT22;5402;50.004;8.246;2023-12-20T11:36:58;7.90;99.90
10702;DHT22;5402;50.004;8.246;2023-12-20T11:39:26;7.80;99.90
10702;DHT22;5402;50.004;8.246;2023-12-20T11:41:56;7.80;99.90
10702;DHT22;5402;50.004;8.246;2023-12-20T11:44:25;7.70;99.90
10702;DHT22;5402;50.004;8.246;2023-12-20T11:46:52;7.60;99.90
10702;DHT22;5402;50.004;8.246;2023-12-20T11:49:23;7.60;99.90
10702;DHT22;5402;50.004;8.246;2023-12-20T11:51:50;7.60;99.90
10702;DHT22;5402;50.004;8.246;2023-12-20T11:54:17;7.50;99.90
10702;DHT22;5402;50.004;8.246;2023-12-20T11:56:44;7.60;99.90
10702;DHT22;5402;50.004;8.246;2023-12-20T11:59:12;7.50;99.90
10702;DHT22;5402;50.004;8.246;2023-12-20T12:01:39;7.60;99.90
10702;DHT22;5402;50.004;8.246;2023-12-20T12:04:05;7.60;99.90
10702;DHT22;5402;50.004;8.246;2023-12-20T12:06:33;7.60;99.90
10702;DHT22;5402;50.004;8.246;2023-12-20T12:09:00;7.70;99.90
10702;DHT22;5402;50.004;8.246;2023-12-20T12:11:26;7.90;99.90
10702;DHT22;5402;50.004;8.246;2023-12-20T12:13:53;8.10;99.90
10702;DHT22;5402;50.004;8.246;2023-12-20T12:16:22;8.20;99.90
10702;DHT22;5402;50.004;8.246;2023-12-20T12:18:55;8.20;99.90
10702;DHT22;5402;50.004;8.246;2023-12-20T12:21:22;8.30;99.90
10702;DHT22;5402;50.004;8.246;2023-12-20T12:23:49;8.30;99.90
10702;DHT22;5402;50.004;8.246;2023-12-20T12:26:16;8.40;99.90
10702;DHT22;5402;50.004;8.246;2023-12-20T12:28:43;8.40;99.90
10702;DHT22;5402;50.004;8.246;2023-12-20T12:31:13;8.30;99.90
10702;DHT22;5402;50.004;8.246;2023-12-20T12:33:42;8.20;99.90
10702;DHT22;5402;50.004;8.246;2023-12-20T12:36:10;8.20;99.90
10702;DHT22;5402;50.004;8.246;2023-12-20T12:38:37;8.20;99.90
10702;DHT22;5402;50.004;8.246;2023-12-20T12:41:04;8.20;99.90
10702;DHT22;5402;50.004;8.246;2023-12-20T12:43:32;8.20;99.90
10702;DHT22;5402;50.004;8.246;2023-12-20T12:45:58;8.20;99.90
10702;DHT22;5402;50.004;8.246;2023-12-20T12:48:25;8.20;99.90
10702;DHT22;5402;50.004;8.246;2023-12-20T12:50:54;8.20;99.90
10702;DHT22;5402;50.004;8.246;2023-12-20T12:53:24;8.10;99.90
10702;DHT22;5402;50.004;8.246;2023-12-20T12:55:52;8.10;99.90
10702;DHT22;5402;50.004;8.246;2023-12-20T12:58:18;8.10;99.90
10702;DHT22;5402;50.004;8.246;2023-12-20T13:00:45;8.10;99.90
10702;DHT22;5402;50.004;8.246;2023-12-20T13:03:12;8.20;99.90
10702;DHT22;5402;50.004;8.246;2023-12-20T13:05:39;8.40;99.90
10702;DHT22;5402;50.004;8.246;2023-12-20T13:08:07;8.40;99.90
10702;DHT22;5402;50.004;8.246;2023-12-20T13:10:35;8.40;99.90
10702;DHT22;5402;50.004;8.246;2023-12-20T13:13:02;8.60;99.90
10702;DHT22;5402;50.004;8.246;2023-12-20T13:15:29;8.60;99.90
10702;DHT22;5402;50.004;8.246;2023-12-20T13:17:57;8.70;99.90
10702;DHT22;5402;50.004;8.246;2023-12-20T13:20:23;8.70;99.90
10702;DHT22;5402;50.004;8.246;2023-12-20T13:22:50;8.70;99.90
10702;DHT22;5402;50.004;8.246;2023-12-20T13:25:18;8.60;99.90
10702;DHT22;5402;50.004;8.246;2023-12-20T13:27:46;8.70;99.90
10702;DHT22;5402;50.004;8.246;2023-12-20T13:30:13;8.60;99.90
10702;DHT22;5402;50.004;8.246;2023-12-20T13:32:40;8.60;99.90
10702;DHT22;5402;50.004;8.246;2023-12-20T13:35:07;8.60;99.90
10702;DHT22;5402;50.004;8.246;2023-12-20T13:37:34;8.50;99.90
10702;DHT22;5402;50.004;8.246;2023-12-20T13:40:01;8.40;99.90
10702;DHT22;5402;50.004;8.246;2023-12-20T13:42:31;8.40;99.90
10702;DHT22;5402;50.004;8.246;2023-12-20T13:44:58;8.40;99.90
10702;DHT22;5402;50.004;8.246;2023-12-20T13:47:24;8.40;99.90
10702;DHT22;5402;50.004;8.246;2023-12-20T13:49:51;8.40;99.90
10702;DHT22;5402;50.004;8.246;2023-12-20T13:52:18;8.50;99.90
10702;DHT22;5402;50.004;8.246;2023-12-20T13:54:45;8.50;99.90
10702;DHT22;5402;50.004;8.246;2023-12-20T13:57:11;8.40;99.90
10702;DHT22;5402;50.004;8.246;2023-12-20T13:59:39;8.40;99.90
10702;DHT22;5402;50.004;8.246;2023-12-20T14:02:07;8.40;99.90
10702;DHT22;5402;50.004;8.246;2023-12-20T14:04:34;8.30;99.90
10702;DHT22;5402;50.004;8.246;2023-12-20T14:07:01;8.30;99.90
10702;DHT22;5402;50.004;8.246;2023-12-20T14:09:28;8.20;99.90
10702;DHT22;5402;50.004;8.246;2023-12-20T14:11:55;8.20;99.90
10702;DHT22;5402;50.004;8.246;2023-12-20T14:14:22;8.20;99.90
10702;DHT22;5402;50.004;8.246;2023-12-20T14:16:50;8.10;99.90
10702;DHT22;5402;50.004;8.246;2023-12-20T14:19:17;8.20;99.90
10702;DHT22;5402;50.004;8.246;2023-12-20T14:21:45;8.10;99.90
10702;DHT22;5402;50.004;8.246;2023-12-20T14:24:12;8.20;99.90
10702;DHT22;5402;50.004;8.246;2023-12-20T14:26:40;8.10;99.90
10702;DHT22;5402;50.004;8.246;2023-12-20T14:29:06;8.00;99.90
10702;DHT22;5402;50.004;8.246;2023-12-20T14:31:34;8.00;99.90
10702;DHT22;5402;50.004;8.246;2023-12-20T14:34:03;8.00;99.90
10702;DHT22;5402;50.004;8.246;2023-12-20T14:36:30;8.00;99.90
10702;DHT22;5402;50.004;8.246;2023-12-20T14:38:57;7.90;99.90
10702;DHT22;5402;50.004;8.246;2023-12-20T14:41:24;7.90;99.90
10702;DHT22;5402;50.004;8.246;2023-12-20T14:43:51;7.80;99.90
10702;DHT22;5402;50.004;8.246;2023-12-20T14:46:18;7.80;99.90
10702;DHT22;5402;50.004;8.246;2023-12-20T14:48:45;7.90;99.90
10702;DHT22;5402;50.004;8.246;2023-12-20T14:51:15;7.90;99.90
10702;DHT22;5402;50.004;8.246;2023-12-20T14:53:41;7.90;99.90
10702;DHT22;5402;50.004;8.246;2023-12-20T14:56:08;7.90;99.90
10702;DHT22;5402;50.004;8.246;2023-12-20T14:58:35;7.90;99.90
10702;DHT22;5402;50.004;8.246;2023-12-20T15:01:02;7.80;99.90
10702;DHT22;5402;50.004;8.246;2023-12-20T15:03:29;7.80;99.90
10702;DHT22;5402;50.004;8.246;2023-12-20T15:05:56;7.80;99.90
10702;DHT22;5402;50.004;8.246;2023-12-20T15:08:25;7.80;99.90
10702;DHT22;5402;50.004;8.246;2023-12-20T15:10:52;7.70;99.90
10702;DHT22;5402;50.004;8.246;2023-12-20T15:13:19;7.70;99.90
10702;DHT22;5402;50.004;8.246;2023-12-20T15:15:46;7.60;99.90
10702;DHT22;5402;50.004;8.246;2023-12-20T15:18:12;7.50;99.90
10702;DHT22;5402;50.004;8.246;2023-12-20T15:20:40;7.50;99.90
10702;DHT22;5402;50.004;8.246;2023-12-20T15:23:09;7.40;99.90
10702;DHT22;5402;50.004;8.246;2023-12-20T15:25:37;7.40;99.90
10702;DHT22;5402;50.004;8.246;2023-12-20T15:28:04;7.40;99.90
10702;DHT22;5402;50.004;8.246;2023-12-20T15:30:31;7.40;99.90
10702;DHT22;5402;50.004;8.246;2023-12-20T15:32:57;7.30;99.90
10702;DHT22;5402;50.004;8.246;2023-12-20T15:35:24;7.30;99.90
10702;DHT22;5402;50.004;8.246;2023-12-20T15:37:51;7.30;99.90
10702;DHT22;5402;50.004;8.246;2023-12-20T15:40:18;7.30;99.90
10702;DHT22;5402;50.004;8.246;2023-12-20T15:42:46;7.30;99.90
10702;DHT22;5402;50.004;8.246;2023-12-20T15:45:13;7.20;99.90
10702;DHT22;5402;50.004;8.246;2023-12-20T15:47:39;7.20;99.90
10702;DHT22;5402;50.004;8.246;2023-12-20T15:50:07;7.20;99.90
10702;DHT22;5402;50.004;8.246;2023-12-20T15:52:34;7.20;99.90
10702;DHT22;5402;50.004;8.246;2023-12-20T15:55:02;7.20;99.90
10702;DHT22;5402;50.004;8.246;2023-12-20T15:57:29;7.20;99.90
10702;DHT22;5402;50.004;8.246;2023-12-20T15:59:57;7.20;99.90
10702;DHT22;5402;50.004;8.246;2023-12-20T16:02:23;7.10;99.90